createdAt,value
2023-04-04T00:01:49.661Z,0.56
2023-04-04T00:04:16.080Z,0.57
2023-04-04T00:06:45.568Z,0.55
2023-04-04T00:09:12.783Z,0.54
2023-04-04T00:11:39.203Z,0.50
2023-04-04T00:14:05.677Z,0.51
2023-04-04T00:16:32.686Z,0.54
2023-04-04T00:18:59.179Z,0.51
2023-04-04T00:21:27.404Z,0.47
2023-04-04T00:23:54.565Z,0.45
2023-04-04T00:26:21.796Z,0.38
2023-04-04T00:28:48.250Z,0.35
2023-04-04T00:31:15.045Z,0.29
2023-04-04T00:33:41.536Z,0.29
2023-04-04T00:36:08.803Z,0.29
2023-04-04T00:38:35.176Z,0.28
2023-04-04T00:41:01.552Z,0.26
2023-04-04T00:43:27.892Z,0.21
2023-04-04T00:45:54.370Z,0.18
2023-04-04T00:48:21.251Z,0.16
2023-04-04T00:50:47.805Z,0.16
2023-04-04T00:53:14.269Z,0.12
2023-04-04T00:55:40.683Z,0.10
2023-04-04T00:58:07.329Z,0.12
2023-04-04T01:00:35.581Z,0.10
2023-04-04T01:03:02.695Z,0.08
2023-04-04T01:05:29.200Z,0.06
2023-04-04T01:07:56.483Z,0.05
2023-04-04T01:10:22.840Z,0.04
2023-04-04T01:12:49.398Z,0.02
2023-04-04T01:15:15.940Z,0.00
2023-04-04T01:17:43.493Z,0.02
2023-04-04T01:20:16.293Z,-0.04
2023-04-04T01:22:43.421Z,-0.03
2023-04-04T01:25:09.831Z,-0.03
2023-04-04T01:27:36.461Z,-0.06
2023-04-04T01:30:03.304Z,-0.07
2023-04-04T01:32:51.803Z,-0.09
2023-04-04T01:35:23.184Z,-0.11
2023-04-04T01:38:05.294Z,-0.12
2023-04-04T01:40:35.486Z,-0.15
2023-04-04T01:43:01.864Z,-0.17
2023-04-04T01:45:29.633Z,-0.16
2023-04-04T01:47:57.049Z,-0.18
2023-04-04T01:50:23.554Z,-0.19
2023-04-04T01:52:50.185Z,-0.25
2023-04-04T01:55:16.623Z,-0.25
2023-04-04T01:57:43.024Z,-0.27
2023-04-04T02:00:10.101Z,-0.26
2023-04-04T02:02:36.816Z,-0.30
2023-04-04T02:05:04.119Z,-0.44
2023-04-04T02:07:30.503Z,-0.40
2023-04-04T02:09:56.961Z,-0.33
2023-04-04T02:12:23.665Z,-0.33
2023-04-04T02:14:50.046Z,-0.34
2023-04-04T02:17:16.724Z,-0.32
2023-04-04T02:19:43.081Z,-0.31
2023-04-04T02:22:09.631Z,-0.31
2023-04-04T02:24:36.000Z,-0.31
2023-04-04T02:27:02.444Z,-0.30
2023-04-04T02:29:28.988Z,-0.32
2023-04-04T02:31:55.781Z,-0.30
2023-04-04T02:34:22.132Z,-0.37
2023-04-04T02:36:48.680Z,-0.50
2023-04-04T02:39:15.168Z,-0.42
2023-04-04T02:41:41.668Z,-0.39
2023-04-04T02:44:09.949Z,-0.37
2023-04-04T02:46:36.325Z,-0.34
2023-04-04T02:49:03.655Z,-0.35
2023-04-04T02:51:30.251Z,-0.34
2023-04-04T02:53:57.211Z,-0.36
2023-04-04T02:56:23.547Z,-0.37
2023-04-04T02:58:50.136Z,-0.41
2023-04-04T03:01:16.561Z,-0.42
2023-04-04T03:03:43.094Z,-0.43
2023-04-04T03:06:09.609Z,-0.45
2023-04-04T03:08:36.316Z,-0.45
2023-04-04T03:11:02.800Z,-0.49
2023-04-04T03:13:29.413Z,-0.51
2023-04-04T03:16:06.604Z,-0.53
2023-04-04T03:18:34.822Z,-0.55
2023-04-04T03:21:01.237Z,-0.56
2023-04-04T03:23:27.568Z,-0.61
2023-04-04T03:25:55.062Z,-0.62
2023-04-04T03:28:21.647Z,-0.62
2023-04-04T03:30:48.028Z,-0.64
2023-04-04T03:33:15.198Z,-0.67
2023-04-04T03:35:41.828Z,-0.64
2023-04-04T03:38:09.296Z,-0.67
2023-04-04T03:40:35.771Z,-0.66
2023-04-04T03:43:05.018Z,-0.73
2023-04-04T03:45:34.297Z,-0.71
2023-04-04T03:48:00.777Z,-0.68
2023-04-04T03:50:27.246Z,-0.67
2023-04-04T03:52:53.614Z,-0.68
2023-04-04T03:55:20.026Z,-0.68
2023-04-04T03:57:46.429Z,-0.75
2023-04-04T04:00:13.071Z,-0.74
2023-04-04T04:02:40.313Z,-0.71
2023-04-04T04:05:07.096Z,-0.69
2023-04-04T04:07:33.603Z,-0.72
2023-04-04T04:10:00.657Z,-0.73
2023-04-04T04:12:27.134Z,-0.78
2023-04-04T04:14:53.698Z,-0.79
2023-04-04T04:17:20.094Z,-0.82
2023-04-04T04:19:46.680Z,-0.83
2023-04-04T04:22:13.030Z,-0.83
2023-04-04T04:24:39.392Z,-0.84
2023-04-04T04:27:06.849Z,-0.86
2023-04-04T04:29:33.240Z,-0.87
2023-04-04T04:31:59.806Z,-0.88
2023-04-04T04:34:26.227Z,-0.87
2023-04-04T04:36:53.776Z,-0.87
2023-04-04T04:39:20.480Z,-0.88
2023-04-04T04:41:46.980Z,-0.87
2023-04-04T04:44:13.322Z,-0.88
2023-04-04T04:46:39.711Z,-0.85
2023-04-04T04:49:06.269Z,-0.83
2023-04-04T04:51:32.796Z,-0.86
2023-04-04T04:53:59.562Z,-0.87
2023-04-04T04:56:26.208Z,-0.88
2023-04-04T04:58:52.579Z,-0.87
2023-04-04T05:01:19.018Z,-0.86
2023-04-04T05:03:45.423Z,-0.85
2023-04-04T05:06:12.330Z,-0.85
2023-04-04T05:08:38.806Z,-0.85
2023-04-04T05:11:05.655Z,-0.83
2023-04-04T05:13:32.186Z,-0.81
2023-04-04T05:15:58.729Z,-0.79
2023-04-04T05:18:26.414Z,-0.76
2023-04-04T05:20:54.016Z,-0.73
2023-04-04T05:23:20.561Z,-0.72
2023-04-04T05:25:53.242Z,-0.74
2023-04-04T05:28:21.216Z,-0.73
2023-04-04T05:30:47.582Z,-0.68
2023-04-04T05:33:13.930Z,-0.64
2023-04-04T05:35:41.345Z,-0.58
2023-04-04T05:38:07.845Z,-0.53
2023-04-04T05:40:34.191Z,-0.51
2023-04-04T05:43:02.002Z,-0.46
2023-04-04T05:45:28.377Z,-0.44
2023-04-04T05:47:54.929Z,-0.40
2023-04-04T05:50:21.517Z,-0.38
2023-04-04T05:52:47.864Z,-0.36
2023-04-04T05:55:14.241Z,-0.33
2023-04-04T05:57:50.391Z,-0.31
2023-04-04T06:00:17.871Z,-0.32
2023-04-04T06:02:44.848Z,-0.29
2023-04-04T06:05:11.506Z,-0.26
2023-04-04T06:07:37.884Z,-0.25
2023-04-04T06:10:04.963Z,-0.23
2023-04-04T06:12:31.673Z,-0.18
2023-04-04T06:14:58.039Z,-0.17
2023-04-04T06:17:24.764Z,-0.11
2023-04-04T06:19:51.521Z,-0.11
2023-04-04T06:22:17.904Z,-0.06
2023-04-04T06:24:44.270Z,-0.05
2023-04-04T06:27:10.865Z,0.03
2023-04-04T06:29:37.332Z,0.02
2023-04-04T06:32:05.303Z,0.08
2023-04-04T06:34:32.089Z,0.06
2023-04-04T06:36:58.438Z,0.18
2023-04-04T06:39:24.795Z,0.20
2023-04-04T06:41:51.396Z,0.18
2023-04-04T06:44:17.761Z,0.31
2023-04-04T06:46:44.691Z,0.41
2023-04-04T06:49:11.662Z,0.46
2023-04-04T06:51:38.028Z,0.52
2023-04-04T06:54:04.408Z,0.54
2023-04-04T06:56:31.029Z,0.56
2023-04-04T06:58:57.483Z,0.68
2023-04-04T07:01:23.996Z,0.66
2023-04-04T07:03:54.016Z,0.77
2023-04-04T07:06:24.584Z,0.84
2023-04-04T07:08:52.280Z,0.97
2023-04-04T07:11:19.002Z,0.98
2023-04-04T07:13:45.339Z,1.09
2023-04-04T07:16:12.005Z,1.18
2023-04-04T07:18:38.551Z,1.26
2023-04-04T07:21:05.336Z,1.32
2023-04-04T07:23:31.881Z,1.39
2023-04-04T07:25:58.459Z,1.43
2023-04-04T07:28:24.817Z,1.45
2023-04-04T07:30:51.186Z,1.52
2023-04-04T07:33:17.592Z,1.57
2023-04-04T07:35:44.004Z,1.60
2023-04-04T07:38:10.439Z,1.57
2023-04-04T07:40:37.412Z,1.55
2023-04-04T07:43:04.161Z,1.61
2023-04-04T07:45:30.545Z,1.63
2023-04-04T07:47:57.207Z,1.65
2023-04-04T07:50:23.621Z,1.67
2023-04-04T07:52:54.370Z,1.69
2023-04-04T07:55:20.934Z,1.80
2023-04-04T07:57:47.541Z,1.85
2023-04-04T08:00:14.551Z,1.86
2023-04-04T08:02:41.127Z,1.90
2023-04-04T08:05:08.384Z,1.85
2023-04-04T08:07:34.737Z,1.88
2023-04-04T08:10:01.301Z,1.99
2023-04-04T08:12:27.827Z,2.10
2023-04-04T08:14:54.154Z,2.18
2023-04-04T08:17:20.950Z,2.24
2023-04-04T08:19:47.326Z,2.36
2023-04-04T08:22:13.760Z,2.48
2023-04-04T08:24:40.380Z,2.61
2023-04-04T08:27:06.822Z,2.71
2023-04-04T08:29:34.129Z,2.80
2023-04-04T08:32:00.939Z,2.68
2023-04-04T08:34:27.346Z,2.65
2023-04-04T08:36:54.022Z,2.63
2023-04-04T08:39:20.515Z,2.69
2023-04-04T08:41:46.988Z,2.81
2023-04-04T08:44:17.260Z,2.95
2023-04-04T08:46:45.925Z,3.03
2023-04-04T08:49:13.000Z,3.02
2023-04-04T08:51:39.903Z,3.04
2023-04-04T08:54:06.774Z,3.17
2023-04-04T08:56:35.227Z,3.15
2023-04-04T08:59:01.717Z,3.15
2023-04-04T09:01:29.818Z,3.30
2023-04-04T09:03:59.255Z,3.45
2023-04-04T09:06:25.890Z,3.50
2023-04-04T09:08:54.063Z,3.59
2023-04-04T09:11:21.099Z,3.76
2023-04-04T09:13:47.448Z,3.85
2023-04-04T09:16:13.956Z,4.00
2023-04-04T09:18:40.400Z,4.02
2023-04-04T09:21:11.127Z,3.83
2023-04-04T09:23:37.643Z,3.75
2023-04-04T09:26:04.898Z,3.69
2023-04-04T09:28:31.993Z,3.76
2023-04-04T09:31:01.156Z,3.94
2023-04-04T09:33:27.542Z,4.20
2023-04-04T09:35:58.718Z,4.44
2023-04-04T09:38:26.405Z,4.62
2023-04-04T09:40:53.282Z,4.72
2023-04-04T09:43:22.164Z,4.75
2023-04-04T09:45:50.283Z,4.67
2023-04-04T09:48:27.430Z,4.55
2023-04-04T09:50:54.008Z,4.68
2023-04-04T09:53:20.561Z,4.60
2023-04-04T09:55:51.284Z,4.48
2023-04-04T09:58:19.337Z,4.70
2023-04-04T10:00:48.261Z,4.97
2023-04-04T10:03:15.326Z,5.22
2023-04-04T10:05:41.938Z,5.48
2023-04-04T10:08:15.945Z,5.53
2023-04-04T10:11:02.628Z,5.59
2023-04-04T10:13:36.602Z,5.65
2023-04-04T10:16:04.137Z,5.69
2023-04-04T10:18:34.647Z,5.54
2023-04-04T10:21:14.565Z,5.34
2023-04-04T10:23:42.767Z,5.30
2023-04-04T10:26:09.841Z,5.49
2023-04-04T10:28:36.795Z,5.49
2023-04-04T10:31:08.834Z,5.37
2023-04-04T10:34:09.318Z,5.21
2023-04-04T10:36:44.528Z,5.03
2023-04-04T10:39:31.405Z,5.03
2023-04-04T10:41:58.828Z,5.23
2023-04-04T10:44:37.732Z,5.18
2023-04-04T10:47:19.627Z,5.19
2023-04-04T10:49:46.618Z,5.45
2023-04-04T10:52:17.600Z,5.59
2023-04-04T10:54:44.883Z,5.82
2023-04-04T10:57:12.581Z,5.98
2023-04-04T11:00:08.282Z,6.34
2023-04-04T11:02:53.189Z,6.34
2023-04-04T11:05:22.830Z,6.33
2023-04-04T11:10:32.514Z,7.06
2023-04-04T11:13:12.959Z,7.51
2023-04-04T11:16:07.957Z,7.69
2023-04-04T11:18:41.570Z,7.92
2023-04-04T11:21:09.233Z,8.26
2023-04-04T11:23:59.012Z,8.44
2023-04-04T11:26:28.378Z,8.72
2023-04-04T11:29:01.514Z,8.44
2023-04-04T11:31:29.870Z,8.95
2023-04-04T11:34:05.993Z,8.96
2023-04-04T11:36:35.660Z,9.45
2023-04-04T11:39:30.531Z,9.43
2023-04-04T11:42:10.201Z,9.73
2023-04-04T11:45:02.799Z,9.75
2023-04-04T11:47:30.200Z,9.96
2023-04-04T11:49:56.792Z,10.72
2023-04-04T11:52:25.984Z,11.04
2023-04-04T11:54:52.820Z,10.63
2023-04-04T11:57:19.824Z,10.21
2023-04-04T11:59:47.576Z,9.34
2023-04-04T12:02:17.061Z,9.23
2023-04-04T12:04:46.457Z,8.98
2023-04-04T12:07:13.831Z,9.45
2023-04-04T12:09:40.622Z,9.56
2023-04-04T12:12:07.607Z,9.07
2023-04-04T12:14:34.180Z,8.70
2023-04-04T12:17:01.732Z,9.50
2023-04-04T12:19:28.501Z,9.80
2023-04-04T12:21:54.894Z,9.86
2023-04-04T12:24:22.332Z,10.17
2023-04-04T12:26:50.016Z,10.85
2023-04-04T12:29:16.545Z,11.37
2023-04-04T12:31:44.837Z,11.78
2023-04-04T12:34:18.982Z,12.07
2023-04-04T12:36:49.207Z,11.75
2023-04-04T12:39:16.389Z,11.12
2023-04-04T12:41:52.850Z,11.17
2023-04-04T12:44:32.973Z,11.58
2023-04-04T12:47:00.456Z,11.04
2023-04-04T12:49:40.615Z,11.03
2023-04-04T12:52:07.847Z,11.60
2023-04-04T12:54:36.134Z,11.64
2023-04-04T12:57:04.519Z,11.31
2023-04-04T12:59:35.793Z,11.81
2023-04-04T13:02:03.201Z,12.17
2023-04-04T13:04:29.625Z,12.01
2023-04-04T13:06:56.185Z,11.30
2023-04-04T13:09:25.801Z,10.82
2023-04-04T13:12:03.001Z,10.73
2023-04-04T13:14:48.678Z,10.32
2023-04-04T13:17:15.735Z,10.31
2023-04-04T13:19:42.101Z,10.26
2023-04-04T13:22:08.613Z,10.09
2023-04-04T13:24:35.002Z,10.64
2023-04-04T13:27:01.795Z,10.94
2023-04-04T13:29:28.155Z,11.18
2023-04-04T13:31:54.756Z,11.48
2023-04-04T13:34:21.929Z,10.67
2023-04-04T13:36:48.304Z,10.82
2023-04-04T13:39:15.114Z,10.44
2023-04-04T13:41:41.505Z,10.12
2023-04-04T13:44:07.851Z,9.97
2023-04-04T13:46:34.448Z,9.89
2023-04-04T13:49:01.725Z,10.54
2023-04-04T13:51:28.113Z,11.01
2023-04-04T13:53:54.474Z,11.50
2023-04-04T13:56:22.141Z,12.27
2023-04-04T13:58:50.760Z,12.96
2023-04-04T14:01:17.173Z,13.44
2023-04-04T14:03:43.566Z,13.93
2023-04-04T14:06:11.071Z,12.96
2023-04-04T14:08:38.216Z,12.23
2023-04-04T14:11:04.672Z,12.05
2023-04-04T14:13:32.544Z,12.33
2023-04-04T14:15:59.133Z,12.00
2023-04-04T14:18:25.676Z,12.23
2023-04-04T14:20:52.018Z,12.30
2023-04-04T14:23:18.404Z,12.27
2023-04-04T14:25:45.081Z,12.67
2023-04-04T14:28:11.859Z,12.73
2023-04-04T14:30:38.411Z,12.25
2023-04-04T14:33:04.774Z,12.67
2023-04-04T14:35:31.161Z,12.27
2023-04-04T14:37:57.703Z,12.42
2023-04-04T14:40:24.072Z,12.58
2023-04-04T14:42:50.546Z,12.70
2023-04-04T14:45:17.644Z,12.67
2023-04-04T14:47:44.245Z,12.75
2023-04-04T14:50:10.761Z,12.59
2023-04-04T14:52:37.197Z,12.72
2023-04-04T14:55:03.912Z,12.14
2023-04-04T14:57:32.107Z,12.65
2023-04-04T15:00:02.159Z,13.05
2023-04-04T15:02:28.793Z,13.07
2023-04-04T15:04:55.252Z,12.25
2023-04-04T15:07:24.203Z,12.49
2023-04-04T15:09:50.616Z,12.87
2023-04-04T15:12:17.073Z,12.49
2023-04-04T15:14:43.464Z,12.08
2023-04-04T15:17:09.859Z,11.93
2023-04-04T15:19:36.969Z,12.60
2023-04-04T15:22:04.628Z,12.48
2023-04-04T15:24:30.966Z,12.04
2023-04-04T15:26:57.831Z,11.84
2023-04-04T15:29:24.348Z,11.25
2023-04-04T15:31:50.839Z,11.18
2023-04-04T15:34:17.216Z,11.45
2023-04-04T15:36:44.403Z,11.68
2023-04-04T15:39:13.932Z,11.57
2023-04-04T15:41:40.895Z,11.55
2023-04-04T15:44:07.421Z,11.94
2023-04-04T15:46:33.877Z,12.55
2023-04-04T15:49:01.062Z,12.77
2023-04-04T15:51:29.005Z,11.71
2023-04-04T15:53:56.092Z,11.60
2023-04-04T15:56:22.512Z,11.45
2023-04-04T15:58:49.220Z,11.27
2023-04-04T16:01:15.800Z,11.45
2023-04-04T16:03:42.756Z,11.42
2023-04-04T16:06:12.899Z,11.28
2023-04-04T16:08:40.721Z,11.18
2023-04-04T16:11:07.089Z,10.75
2023-04-04T16:13:33.771Z,10.46
2023-04-04T16:16:00.240Z,10.17
2023-04-04T16:18:27.223Z,10.08
2023-04-04T16:20:53.637Z,10.13
2023-04-04T16:23:20.010Z,9.88
2023-04-04T16:25:46.909Z,9.96
2023-04-04T16:28:13.281Z,10.43
2023-04-04T16:30:39.850Z,10.55
2023-04-04T16:33:06.785Z,10.30
2023-04-04T16:35:33.214Z,9.93
2023-04-04T16:37:59.605Z,9.91
2023-04-04T16:40:26.213Z,9.49
2023-04-04T16:42:52.584Z,9.13
2023-04-04T16:45:18.916Z,8.84
2023-04-04T16:47:45.330Z,8.67
2023-04-04T16:50:12.049Z,8.62
2023-04-04T16:52:38.371Z,8.45
2023-04-04T16:55:05.328Z,8.25
2023-04-04T16:57:31.904Z,8.15
2023-04-04T16:59:58.338Z,7.93
2023-04-04T17:02:24.745Z,7.75
2023-04-04T17:04:51.281Z,7.64
2023-04-04T17:07:17.758Z,7.53
2023-04-04T17:09:45.942Z,7.51
2023-04-04T17:12:13.518Z,7.48
2023-04-04T17:14:39.950Z,7.45
2023-04-04T17:17:06.321Z,7.30
2023-04-04T17:19:34.777Z,7.32
2023-04-04T17:22:01.796Z,7.36
2023-04-04T17:24:28.167Z,7.36
2023-04-04T17:26:56.809Z,7.45
2023-04-04T17:29:26.699Z,7.49
2023-04-04T17:31:54.591Z,7.33
2023-04-04T17:34:21.035Z,7.36
2023-04-04T17:36:47.705Z,7.45
2023-04-04T17:39:14.445Z,7.38
2023-04-04T17:41:40.988Z,7.45
2023-04-04T17:44:07.353Z,7.35
2023-04-04T17:46:33.800Z,7.28
2023-04-04T17:49:01.188Z,7.35
2023-04-04T17:51:28.549Z,7.29
2023-04-04T17:53:54.912Z,7.28
2023-04-04T17:56:21.943Z,7.16
2023-04-04T17:58:48.383Z,7.23
2023-04-04T18:01:14.925Z,7.25
2023-04-04T18:03:41.368Z,7.18
2023-04-04T18:06:08.556Z,7.19
2023-04-04T18:08:34.933Z,7.17
2023-04-04T18:11:01.358Z,7.18
2023-04-04T18:13:27.842Z,7.05
2023-04-04T18:15:54.266Z,7.04
2023-04-04T18:18:21.312Z,7.03
2023-04-04T18:20:48.236Z,7.05
2023-04-04T18:23:16.504Z,7.00
2023-04-04T18:25:43.080Z,6.96
2023-04-04T18:28:09.500Z,6.87
2023-04-04T18:30:37.456Z,6.84
2023-04-04T18:33:04.336Z,6.74
2023-04-04T18:35:30.869Z,6.68
2023-04-04T18:37:57.261Z,6.61
2023-04-04T18:40:23.716Z,6.63
2023-04-04T18:42:50.176Z,6.40
2023-04-04T18:45:17.404Z,6.31
2023-04-04T18:47:44.755Z,6.33
2023-04-04T18:50:12.024Z,6.30
2023-04-04T18:52:38.467Z,6.28
2023-04-04T18:55:05.271Z,6.31
2023-04-04T18:57:33.266Z,6.21
2023-04-04T18:59:59.740Z,6.13
2023-04-04T19:02:27.193Z,6.01
2023-04-04T19:04:55.064Z,5.89
2023-04-04T19:07:24.395Z,5.80
2023-04-04T19:09:51.598Z,5.74
2023-04-04T19:12:18.120Z,5.69
2023-04-04T19:14:44.502Z,5.59
2023-04-04T19:17:15.390Z,5.56
2023-04-04T19:19:43.207Z,5.51
2023-04-04T19:22:09.638Z,5.42
2023-04-04T19:24:36.206Z,5.35
2023-04-04T19:27:03.215Z,5.32
2023-04-04T19:29:31.994Z,5.24
2023-04-04T19:31:58.435Z,5.14
2023-04-04T19:34:24.773Z,5.08
2023-04-04T19:36:51.133Z,4.98
2023-04-04T19:39:18.738Z,4.90
2023-04-04T19:41:45.421Z,4.81
2023-04-04T19:44:19.625Z,4.67
2023-04-04T19:46:46.914Z,4.58
2023-04-04T19:49:13.864Z,4.50
2023-04-04T19:51:48.658Z,4.44
2023-04-04T19:54:15.367Z,4.38
2023-04-04T19:56:41.996Z,4.31
2023-04-04T19:59:10.682Z,4.24
2023-04-04T20:01:40.538Z,4.21
2023-04-04T20:04:11.400Z,4.13
2023-04-04T20:06:38.749Z,4.12
2023-04-04T20:09:10.247Z,4.06
2023-04-04T20:11:36.732Z,4.02
2023-04-04T20:14:06.083Z,3.95
2023-04-04T20:16:33.293Z,3.89
2023-04-04T20:19:00.689Z,3.81
2023-04-04T20:21:31.534Z,3.79
2023-04-04T20:24:10.708Z,3.70
2023-04-04T20:26:51.249Z,3.65
2023-04-04T20:29:21.906Z,3.61
2023-04-04T20:31:50.990Z,3.54
2023-04-04T20:34:41.133Z,3.50
2023-04-04T20:37:09.213Z,3.46
2023-04-04T20:39:41.590Z,3.43
2023-04-04T20:42:14.428Z,3.38
2023-04-04T20:44:41.021Z,3.34
2023-04-04T20:47:07.625Z,3.33
2023-04-04T20:49:33.982Z,3.31
2023-04-04T20:52:00.307Z,3.32
2023-04-04T20:54:26.653Z,3.27
2023-04-04T20:56:55.203Z,3.22
2023-04-04T20:59:31.937Z,3.19
2023-04-04T21:02:24.758Z,3.14
2023-04-04T21:04:51.836Z,3.11
2023-04-04T21:07:40.170Z,3.08
2023-04-04T21:10:19.812Z,3.03
2023-04-04T21:12:46.204Z,2.95
2023-04-04T21:15:38.477Z,2.91
2023-04-04T21:18:09.134Z,2.90
2023-04-04T21:20:47.680Z,2.89
2023-04-04T21:23:20.500Z,2.84
2023-04-04T21:25:46.845Z,2.81
2023-04-04T21:28:13.207Z,2.83
2023-04-04T21:30:44.095Z,2.79
2023-04-04T21:33:16.546Z,2.74
2023-04-04T21:35:48.851Z,2.66
2023-04-04T21:38:31.550Z,2.62
2023-04-04T21:41:01.988Z,2.56
2023-04-04T21:43:28.427Z,2.53
2023-04-04T21:45:55.912Z,2.47
2023-04-04T21:48:25.917Z,2.39
2023-04-04T21:50:52.286Z,2.35
2023-04-04T21:53:18.701Z,2.32
2023-04-04T21:55:45.505Z,2.30
2023-04-04T21:58:12.587Z,2.23
2023-04-04T22:00:39.474Z,2.17
2023-04-04T22:03:06.439Z,2.16
2023-04-04T22:05:38.853Z,2.18
2023-04-04T22:08:06.002Z,2.13
2023-04-04T22:10:33.180Z,2.08
2023-04-04T22:12:59.579Z,2.05
2023-04-04T22:15:29.527Z,1.99
2023-04-04T22:18:03.661Z,1.95
2023-04-04T22:20:32.028Z,1.88
2023-04-04T22:22:59.159Z,1.89
2023-04-04T22:25:26.499Z,1.90
2023-04-04T22:27:53.637Z,1.91
2023-04-04T22:30:20.017Z,1.86
2023-04-04T22:32:46.646Z,1.81
2023-04-04T22:35:13.110Z,1.77
2023-04-04T22:37:41.458Z,1.71
2023-04-04T22:40:11.748Z,1.69
2023-04-04T22:42:38.176Z,1.63
2023-04-04T22:45:04.864Z,1.63
2023-04-04T22:47:31.407Z,1.62
2023-04-04T22:49:58.349Z,1.58
2023-04-04T22:52:26.416Z,1.57
2023-04-04T22:54:53.374Z,1.56
2023-04-04T22:57:19.720Z,1.54
2023-04-04T22:59:46.071Z,1.48
2023-04-04T23:02:12.684Z,1.45
2023-04-04T23:04:39.106Z,1.43
2023-04-04T23:07:05.483Z,1.42
2023-04-04T23:09:32.390Z,1.42
2023-04-04T23:11:58.736Z,1.40
2023-04-04T23:14:30.506Z,1.36
2023-04-04T23:16:57.477Z,1.30
2023-04-04T23:19:23.808Z,1.27
2023-04-04T23:21:50.210Z,1.28
2023-04-04T23:24:16.779Z,1.28
2023-04-04T23:26:43.122Z,1.26
2023-04-04T23:29:09.768Z,1.23
2023-04-04T23:31:36.591Z,1.19
2023-04-04T23:34:03.059Z,1.17
2023-04-04T23:36:29.497Z,1.19
2023-04-04T23:38:56.077Z,1.19
2023-04-04T23:41:23.228Z,1.18
2023-04-04T23:43:49.562Z,1.16
2023-04-04T23:46:16.155Z,1.11
2023-04-04T23:48:42.600Z,1.08
2023-04-04T23:51:10.811Z,1.06
2023-04-04T23:53:37.387Z,1.03
2023-04-04T23:56:03.809Z,0.98
2023-04-04T23:58:30.536Z,0.98
